Time;durP1;ratioP1;P1;durP2;ratioP2;P2;SDS_P1;SDS_P2;PMS_P1;PMS_P2;Temp;Humidity;BMP_temperature;BMP_pressure;BME280_temperature;BME280_humidity;BME280_pressure;Samples;Min_cycle;Max_cycle;Signal;HPM_P1;HPM_P2
2023/07/07 00:00:40;;;;;;;;;;;;;;;16.70;100.00;95934.56;10432337;28;2142;-73
2023/07/07 00:05:42;;;;;;;;;;;;;;;16.67;100.00;95935.97;10430845;28;1919;-73
2023/07/07 00:10:45;;;;;;;;;;;;;;;16.61;100.00;95939.91;10430105;28;1912;-75
2023/07/07 00:15:48;;;;;;;;;;;;;;;16.59;100.00;95941.28;10435641;28;2032;-73
2023/07/07 00:20:50;;;;;;;;;;;;;;;16.48;100.00;95935.31;10436127;28;1977;-75
2023/07/07 00:25:52;;;;;;;;;;;;;;;16.49;100.00;95937.72;10435875;28;2275;-72
2023/07/07 00:30:55;;;;;;;;;;;;;;;16.49;100.00;95947.78;10435911;28;1925;-73
2023/07/07 00:35:58;;;;;;;;;;;;;;;16.41;100.00;95953.91;10435739;28;1910;-72
2023/07/07 00:41:00;;;;;;;;;;;;;;;16.33;100.00;95960.06;10437839;28;2003;-73
2023/07/07 00:46:03;;;;;;;;;;;;;;;16.25;100.00;95947.25;10432963;28;2013;-72
2023/07/07 00:51:06;;;;;;;;;;;;;;;16.17;100.00;95954.19;10426921;28;1993;-72
2023/07/07 00:56:09;;;;;;;;;;;;;;;16.22;100.00;95956.78;10432916;28;2069;-71
2023/07/07 01:01:13;;;;;;;;;;;;;;;16.13;100.00;95962.13;10434190;28;2158;-72
2023/07/07 01:06:16;;;;;;;;;;;;;;;16.23;100.00;95965.75;10434100;28;2119;-74
2023/07/07 01:11:19;;;;;;;;;;;;;;;16.10;100.00;95967.38;10433513;28;2028;-73
2023/07/07 01:16:22;;;;;;;;;;;;;;;16.08;100.00;95972.28;10433367;28;2060;-73
2023/07/07 01:21:29;;;;;;;;;;;;;;;15.92;100.00;95971.81;10432995;28;2332;-74
2023/07/07 01:26:32;;;;;;;;;;;;;;;15.90;100.00;95974.00;10432436;28;1979;-73
2023/07/07 01:31:40;;;;;;;;;;;;;;;15.83;100.00;95968.97;10435618;28;2114;-73
2023/07/07 01:36:43;;;;;;;;;;;;;;;15.70;100.00;95972.50;10433999;28;2122;-74
2023/07/07 01:41:46;;;;;;;;;;;;;;;15.55;100.00;95972.78;10435032;28;4279;-72
2023/07/07 01:46:48;;;;;;;;;;;;;;;15.74;100.00;95976.22;10432310;28;2027;-72
2023/07/07 01:51:51;;;;;;;;;;;;;;;15.60;100.00;95972.69;10432089;28;2137;-72
2023/07/07 01:56:54;;;;;;;;;;;;;;;15.49;100.00;95985.59;10433000;28;1962;-73
2023/07/07 02:01:56;;;;;;;;;;;;;;;15.34;100.00;95985.91;10430885;28;2089;-72
2023/07/07 02:06:59;;;;;;;;;;;;;;;15.16;100.00;95992.16;10430738;28;2129;-73
2023/07/07 02:12:01;;;;;;;;;;;;;;;15.21;100.00;95986.69;10430976;28;1963;-73
2023/07/07 02:17:03;;;;;;;;;;;;;;;15.12;100.00;95989.25;10430838;28;2368;-73
2023/07/07 02:22:06;;;;;;;;;;;;;;;15.25;100.00;95982.25;10427708;28;2043;-73
2023/07/07 02:27:10;;;;;;;;;;;;;;;15.30;100.00;95990.28;10429383;28;2164;-73
2023/07/07 02:32:13;;;;;;;;;;;;;;;15.37;100.00;95990.72;10430784;28;2189;-73
2023/07/07 02:37:15;;;;;;;;;;;;;;;15.39;100.00;95992.00;10428417;28;2421;-72
2023/07/07 02:42:18;;;;;;;;;;;;;;;15.31;100.00;95989.19;10432712;28;4554;-73
2023/07/07 02:47:20;;;;;;;;;;;;;;;15.16;100.00;95992.16;10429716;28;2048;-71
2023/07/07 02:52:22;;;;;;;;;;;;;;;15.03;100.00;95999.16;10429902;28;2061;-73
2023/07/07 02:57:25;;;;;;;;;;;;;;;15.05;100.00;95994.25;10428309;28;1998;-75
2023/07/07 03:02:28;;;;;;;;;;;;;;;15.26;100.00;96000.09;10430947;28;1972;-71
2023/07/07 03:07:30;;;;;;;;;;;;;;;15.30;100.00;95998.41;10429025;28;1980;-73
2023/07/07 03:12:33;;;;;;;;;;;;;;;15.17;100.00;96000.00;10427872;28;2248;-73
2023/07/07 03:17:36;;;;;;;;;;;;;;;15.21;100.00;96002.94;10428880;28;2036;-71
2023/07/07 03:22:38;;;;;;;;;;;;;;;15.23;100.00;95998.81;10431382;28;2226;-73
2023/07/07 03:27:41;;;;;;;;;;;;;;;15.33;100.00;96005.94;10429367;28;2016;-72
2023/07/07 03:32:44;;;;;;;;;;;;;;;15.30;100.00;96006.53;10426669;28;8889;-74
2023/07/07 03:37:46;;;;;;;;;;;;;;;15.30;100.00;96015.47;10423078;28;5323;-75
2023/07/07 03:42:49;;;;;;;;;;;;;;;15.41;100.00;96016.91;10433847;28;5180;-73
2023/07/07 03:47:52;;;;;;;;;;;;;;;15.65;100.00;96019.50;10432031;28;2081;-74
2023/07/07 03:52:55;;;;;;;;;;;;;;;15.87;100.00;96013.38;10436642;28;5292;-76
2023/07/07 03:57:57;;;;;;;;;;;;;;;16.06;100.00;96015.97;10437163;28;1995;-73
2023/07/07 04:02:59;;;;;;;;;;;;;;;16.23;100.00;96014.56;10435848;28;2048;-73
2023/07/07 04:08:02;;;;;;;;;;;;;;;16.35;100.00;96006.69;10436167;28;2215;-73
2023/07/07 04:13:05;;;;;;;;;;;;;;;16.60;100.00;96014.25;10437729;28;1964;-74
2023/07/07 04:18:07;;;;;;;;;;;;;;;16.82;100.00;96010.81;10436854;28;2052;-74
2023/07/07 04:23:10;;;;;;;;;;;;;;;16.98;100.00;96013.97;10436934;28;1991;-74
2023/07/07 04:28:12;;;;;;;;;;;;;;;17.25;100.00;96013.84;10435382;28;2107;-73
2023/07/07 04:33:15;;;;;;;;;;;;;;;17.48;100.00;96021.97;10438218;28;2164;-73
2023/07/07 04:38:18;;;;;;;;;;;;;;;17.60;100.00;96022.19;10436271;28;2083;-73
2023/07/07 04:43:21;;;;;;;;;;;;;;;17.88;100.00;96025.56;10438577;28;6382;-74
2023/07/07 04:48:23;;;;;;;;;;;;;;;18.11;100.00;96029.00;10435303;28;1959;-74
2023/07/07 04:53:27;;;;;;;;;;;;;;;18.42;100.00;96041.72;10434911;28;2090;-73
2023/07/07 04:58:29;;;;;;;;;;;;;;;18.72;100.00;96043.56;10433303;28;2243;-71
2023/07/07 05:03:32;;;;;;;;;;;;;;;18.60;100.00;96054.25;10433547;28;2031;-73
2023/07/07 05:08:34;;;;;;;;;;;;;;;19.01;100.00;96055.75;10433505;28;2286;-73
2023/07/07 05:13:37;;;;;;;;;;;;;;;19.27;100.00;96047.56;10434615;28;2278;-72
2023/07/07 05:18:39;;;;;;;;;;;;;;;19.33;100.00;96057.97;10431528;28;2030;-73
2023/07/07 05:23:42;;;;;;;;;;;;;;;19.78;100.00;96054.06;10432074;28;2028;-73
2023/07/07 05:28:44;;;;;;;;;;;;;;;20.05;100.00;96059.13;10434650;28;1979;-73
2023/07/07 05:33:46;;;;;;;;;;;;;;;20.24;100.00;96064.19;10435403;28;2116;-72
2023/07/07 05:38:49;;;;;;;;;;;;;;;20.77;100.00;96070.97;10435614;28;2166;-73
2023/07/07 05:43:52;;;;;;;;;;;;;;;20.81;100.00;96060.19;10429216;28;5414;-76
2023/07/07 05:48:54;;;;;;;;;;;;;;;20.97;100.00;96066.66;10429128;28;1968;-74
2023/07/07 05:53:57;;;;;;;;;;;;;;;21.12;100.00;96065.25;10454854;28;2014;-77
2023/07/07 05:59:02;;;;;;;;;;;;;;;21.04;100.00;96065.00;10442200;28;2028;-75
2023/07/07 06:04:05;;;;;;;;;;;;;;;21.22;100.00;96062.13;10436976;28;2198;-74
2023/07/07 06:09:11;;;;;;;;;;;;;;;21.49;100.00;96064.31;10435447;28;1943;-75
2023/07/07 06:14:15;;;;;;;;;;;;;;;21.82;100.00;96063.50;10431692;28;1954;-75
2023/07/07 06:19:19;;;;;;;;;;;;;;;22.28;100.00;96069.78;10427510;28;1983;-75
2023/07/07 06:24:29;;;;;;;;;;;;;;;22.35;100.00;96078.22;10428674;28;1877;-76
2023/07/07 06:29:35;;;;;;;;;;;;;;;22.08;100.00;96076.91;10426016;28;2036;-75
2023/07/07 06:34:43;;;;;;;;;;;;;;;22.59;100.00;96080.16;10411654;28;2191;-75
2023/07/07 06:39:52;;;;;;;;;;;;;;;23.19;100.00;96079.28;10425981;28;5527;-73
2023/07/07 06:44:57;;;;;;;;;;;;;;;23.41;100.00;96085.38;10433294;28;2037;-75
2023/07/07 06:50:03;;;;;;;;;;;;;;;23.59;98.21;96085.88;10424937;28;1942;-76
2023/07/07 06:55:12;;;;;;;;;;;;;;;23.65;95.06;96085.31;10426445;28;1892;-76
2023/07/07 07:00:18;;;;;;;;;;;;;;;23.63;95.07;96087.63;10426303;28;2000;-78
2023/07/07 07:05:25;;;;;;;;;;;;;;;23.77;93.71;96089.16;10424376;28;1899;-74
2023/07/07 07:10:37;;;;;;;;;;;;;;;24.11;95.14;96080.28;10423870;28;1939;-75
2023/07/07 07:15:47;;;;;;;;;;;;;;;24.39;91.57;96082.97;10419340;28;1910;-73
2023/07/07 07:20:53;;;;;;;;;;;;;;;23.64;94.21;96093.91;10420618;28;2040;-73
2023/07/07 07:25:57;;;;;;;;;;;;;;;23.37;94.40;96095.47;10426279;28;1912;-73
2023/07/07 07:31:00;;;;;;;;;;;;;;;23.57;96.69;96102.72;10424954;28;2302;-75
2023/07/07 07:36:04;;;;;;;;;;;;;;;24.06;92.81;96091.53;10424230;28;2019;-72
2023/07/07 07:46:26;;;;;;;;;;;;;;;24.74;85.05;96099.50;10427131;28;1985;-73
2023/07/07 07:51:30;;;;;;;;;;;;;;;25.06;83.58;96107.72;10424941;28;1976;-72
2023/07/07 07:56:39;;;;;;;;;;;;;;;25.09;73.49;96107.03;10427994;28;1914;-72
2023/07/07 08:01:45;;;;;;;;;;;;;;;24.90;79.45;96105.00;10424463;28;1904;-73
2023/07/07 08:06:52;;;;;;;;;;;;;;;24.59;76.56;96110.53;10426374;28;1919;-73
2023/07/07 08:11:56;;;;;;;;;;;;;;;25.03;70.17;96108.41;10424946;28;1912;-73
2023/07/07 08:17:08;;;;;;;;;;;;;;;25.05;71.07;96115.19;10426175;28;2120;-74
2023/07/07 08:22:13;;;;;;;;;;;;;;;25.46;59.86;96103.88;10426520;28;2022;-74
2023/07/07 08:27:23;;;;;;;;;;;;;;;25.62;56.31;96110.09;10428581;28;2403;-71
2023/07/07 08:32:33;;;;;;;;;;;;;;;24.91;54.48;96106.56;10425453;28;1920;-73
2023/07/07 08:37:42;;;;;;;;;;;;;;;24.93;44.78;96114.47;10421700;28;1941;-73
2023/07/07 08:42:47;;;;;;;;;;;;;;;25.30;46.02;96112.19;10424923;28;1971;-72
2023/07/07 08:47:53;;;;;;;;;;;;;;;25.67;49.68;96104.31;10421448;28;1929;-75
2023/07/07 08:52:59;;;;;;;;;;;;;;;25.46;40.79;96103.88;10432421;28;1897;-74
2023/07/07 08:58:03;;;;;;;;;;;;;;;25.61;43.01;96106.56;10429032;28;1977;-74
2023/07/07 09:03:31;;;;;;;;;;;;;;;25.94;41.81;96101.69;10428421;28;1897;-74
2023/07/07 09:08:39;;;;;;;;;;;;;;;26.21;44.27;96095.13;10425400;28;1975;-73
2023/07/07 09:13:53;;;;;;;;;;;;;;;26.16;41.23;96097.41;10423763;28;2006;-73
2023/07/07 09:18:58;;;;;;;;;;;;;;;26.53;41.57;96105.91;10426164;28;1949;-74
2023/07/07 09:24:04;;;;;;;;;;;;;;;26.25;40.46;96097.94;10426200;28;2251;-76
2023/07/07 09:29:10;;;;;;;;;;;;;;;26.46;40.95;96095.56;10426277;28;1865;-75
2023/07/07 09:34:14;;;;;;;;;;;;;;;26.59;41.03;96094.25;10413039;28;2066;-75
2023/07/07 09:39:20;;;;;;;;;;;;;;;26.48;40.47;96095.22;10432550;28;2001;-75
2023/07/07 09:44:30;;;;;;;;;;;;;;;26.61;39.81;96091.09;10424402;28;5184;-76
2023/07/07 09:49:37;;;;;;;;;;;;;;;26.69;36.68;96092.81;10410010;28;2202;-75
2023/07/07 10:11:12;;;;;;;;;;;;;;;26.52;36.29;96074.00;10429623;28;1909;-75
2023/07/07 10:16:34;;;;;;;;;;;;;;;26.43;38.12;96073.47;10430578;28;1969;-76
2023/07/07 10:21:54;;;;;;;;;;;;;;;26.53;37.77;96075.59;10427903;28;2039;-74
2023/07/07 10:27:13;;;;;;;;;;;;;;;26.90;36.80;96076.56;10316849;28;1980;-73
2023/07/07 10:32:21;;;;;;;;;;;;;;;26.25;35.93;96068.41;10329170;28;2165;-73
2023/07/07 10:43:21;;;;;;;;;;;;;;;27.85;33.42;96067.19;10363076;28;1995;-73
2023/07/07 10:48:35;;;;;;;;;;;;;;;28.87;31.51;96076.00;10421998;28;2079;-74
2023/07/07 10:53:43;;;;;;;;;;;;;;;29.19;29.80;96073.47;10426715;28;1900;-78
2023/07/07 10:59:03;;;;;;;;;;;;;;;28.45;30.67;96080.84;10416791;28;1942;-79
2023/07/07 11:27:09;;;;;;;;;;;;;;;29.31;29.35;96053.75;10355873;28;1863;-77
2023/07/07 11:32:12;;;;;;;;;;;;;;;28.88;30.31;96059.03;10431534;28;2043;-76
2023/07/07 11:37:30;;;;;;;;;;;;;;;28.39;31.02;96043.66;10430809;28;2071;-78
2023/07/07 11:42:42;;;;;;;;;;;;;;;27.53;31.52;96038.38;10430249;28;4681;-78
2023/07/07 11:47:46;;;;;;;;;;;;;;;27.93;31.62;96043.19;10432124;28;1853;-77
2023/07/07 11:52:51;;;;;;;;;;;;;;;27.93;31.83;96032.97;10431841;28;1985;-77
2023/07/07 11:58:06;;;;;;;;;;;;;;;27.87;29.67;96039.22;10427790;28;1955;-78
2023/07/07 12:03:10;;;;;;;;;;;;;;;28.12;32.87;96039.41;10431735;28;1918;-77
2023/07/07 12:08:30;;;;;;;;;;;;;;;27.85;28.82;96036.81;10430500;28;1972;-76
2023/07/07 12:13:35;;;;;;;;;;;;;;;27.52;29.44;96039.56;10434946;28;1975;-77
2023/07/07 12:18:39;;;;;;;;;;;;;;;27.46;29.08;96026.09;10438021;28;1980;-77
2023/07/07 12:23:46;;;;;;;;;;;;;;;27.78;29.32;96022.13;10435081;28;1924;-77
2023/07/07 12:29:02;;;;;;;;;;;;;;;27.71;29.82;96022.84;10437600;28;1964;-77
2023/07/07 12:34:06;;;;;;;;;;;;;;;27.98;29.59;96018.78;10433729;28;2004;-73
2023/07/07 12:39:12;;;;;;;;;;;;;;;28.40;28.54;96020.38;10432704;28;1930;-75
2023/07/07 12:44:17;;;;;;;;;;;;;;;27.87;29.05;96012.38;10431379;28;4685;-76
2023/07/07 12:49:22;;;;;;;;;;;;;;;27.98;28.93;96018.78;10412633;28;2061;-76
2023/07/07 12:59:55;;;;;;;;;;;;;;;27.83;27.80;96005.22;10428791;28;2038;-77
2023/07/07 13:05:08;;;;;;;;;;;;;;;28.01;27.49;95990.41;10433795;28;2160;-77
2023/07/07 13:10:20;;;;;;;;;;;;;;;28.12;26.99;95990.50;10412964;28;2248;-78
2023/07/07 13:15:22;;;;;;;;;;;;;;;28.57;27.13;95979.38;10433913;28;1976;-78
2023/07/07 13:20:26;;;;;;;;;;;;;;;28.58;27.38;95973.50;10434628;28;1912;-76
2023/07/07 13:25:37;;;;;;;;;;;;;;;28.50;27.84;95972.66;10430846;28;1965;-76
2023/07/07 13:30:51;;;;;;;;;;;;;;;28.40;27.66;95972.56;10431603;28;1819;-79
2023/07/07 13:36:06;;;;;;;;;;;;;;;28.82;26.42;95969.28;10429071;28;1973;-78
2023/07/07 13:47:58;;;;;;;;;;;;;;;28.82;28.61;95955.47;10401696;28;1924;-79
2023/07/07 13:53:01;;;;;;;;;;;;;;;29.22;27.67;95950.91;10426137;28;1954;-75
2023/07/07 13:58:10;;;;;;;;;;;;;;;28.94;27.51;95951.56;10428974;28;2074;-76
2023/07/07 14:03:43;;;;;;;;;;;;;;;28.98;28.33;95952.38;10463897;27;2949;-77
2023/07/07 14:08:46;;;;;;;;;;;;;;;28.13;29.06;95947.06;10432696;28;1843;-76
2023/07/07 14:13:49;;;;;;;;;;;;;;;28.63;28.58;95948.25;10425681;28;1925;-74
2023/07/07 14:18:52;;;;;;;;;;;;;;;28.37;28.75;95943.69;10433816;28;2204;-77
2023/07/07 14:23:55;;;;;;;;;;;;;;;28.52;28.52;95937.09;10438408;28;2091;-81
2023/07/07 14:28:57;;;;;;;;;;;;;;;28.42;28.51;95932.28;10440504;28;1892;-80
2023/07/07 14:34:00;;;;;;;;;;;;;;;28.86;26.58;95933.31;10437137;28;1935;-81
2023/07/07 14:39:03;;;;;;;;;;;;;;;28.69;28.86;95929.28;10436576;28;1954;-80
2023/07/07 14:44:06;;;;;;;;;;;;;;;29.02;28.10;95929.09;10437899;28;1938;-80
2023/07/07 14:49:08;;;;;;;;;;;;;;;29.17;27.08;95920.84;10431945;28;1935;-76
2023/07/07 14:54:11;;;;;;;;;;;;;;;28.71;28.34;95926.94;10425861;28;2229;-75
2023/07/07 14:59:14;;;;;;;;;;;;;;;28.88;27.52;95915.16;10434400;28;2028;-76
2023/07/07 15:04:18;;;;;;;;;;;;;;;28.91;28.08;95908.84;10467200;28;1938;-76
2023/07/07 15:09:20;;;;;;;;;;;;;;;28.74;28.00;95915.09;10468385;28;1993;-76
2023/07/07 15:14:23;;;;;;;;;;;;;;;28.51;28.29;95910.63;10446992;28;1906;-75
2023/07/07 15:19:26;;;;;;;;;;;;;;;28.29;28.38;95917.97;10440617;28;1984;-75
2023/07/07 15:24:29;;;;;;;;;;;;;;;28.84;28.03;95902.50;10441401;28;2328;-74
2023/07/07 15:29:32;;;;;;;;;;;;;;;28.63;29.17;95901.22;10442374;28;1896;-75
2023/07/07 15:34:35;;;;;;;;;;;;;;;28.93;28.29;95894.66;10438639;28;1973;-75
2023/07/07 15:39:38;;;;;;;;;;;;;;;28.38;28.63;95890.03;10444869;28;1987;-75
2023/07/07 15:44:40;;;;;;;;;;;;;;;28.54;28.41;95886.94;10438501;28;4519;-75
2023/07/07 15:49:42;;;;;;;;;;;;;;;28.31;28.75;95886.38;10441165;28;1922;-76
2023/07/07 15:54:45;;;;;;;;;;;;;;;28.61;28.55;95888.94;10443128;28;2140;-77
2023/07/07 15:59:51;;;;;;;;;;;;;;;28.46;27.60;95879.78;10440676;28;2454;-76
2023/07/07 16:04:54;;;;;;;;;;;;;;;27.88;28.45;95873.06;10438106;28;1897;-74
2023/07/07 16:09:57;;;;;;;;;;;;;;;27.86;29.47;95877.38;10437726;28;1966;-77
2023/07/07 16:15:00;;;;;;;;;;;;;;;27.92;30.24;95879.41;10438579;28;1954;-74
2023/07/07 16:20:02;;;;;;;;;;;;;;;27.66;31.23;95882.31;10440046;28;2015;-76
2023/07/07 16:25:05;;;;;;;;;;;;;;;27.48;31.76;95873.88;10438181;28;1921;-76
2023/07/07 16:30:08;;;;;;;;;;;;;;;27.21;31.75;95876.78;10439984;28;1944;-77
2023/07/07 16:35:10;;;;;;;;;;;;;;;26.93;32.23;95877.25;10439492;28;2150;-76
2023/07/07 16:40:13;;;;;;;;;;;;;;;26.93;32.59;95868.16;10438057;28;4654;-76
2023/07/07 16:45:15;;;;;;;;;;;;;;;26.96;32.63;95883.94;10441889;28;2134;-75
2023/07/07 16:50:18;;;;;;;;;;;;;;;26.83;33.18;95877.09;10435917;28;2200;-75
2023/07/07 16:55:20;;;;;;;;;;;;;;;26.66;32.79;95878.50;10435245;28;2209;-75
2023/07/07 17:00:22;;;;;;;;;;;;;;;26.61;33.83;95876.06;10436403;28;2011;-75
2023/07/07 17:05:25;;;;;;;;;;;;;;;26.55;33.33;95883.88;10434648;28;2098;-75
2023/07/07 17:10:27;;;;;;;;;;;;;;;26.49;33.79;95884.56;10433198;28;2050;-77
2023/07/07 17:15:30;;;;;;;;;;;;;;;26.39;33.90;95878.50;10431756;28;1942;-74
2023/07/07 17:20:32;;;;;;;;;;;;;;;26.27;34.04;95881.47;10433909;28;2009;-74
2023/07/07 17:25:35;;;;;;;;;;;;;;;26.23;34.81;95893.63;10443258;28;2053;-79
2023/07/07 17:30:38;;;;;;;;;;;;;;;26.06;34.54;95883.91;10432399;28;1978;-77
2023/07/07 17:35:40;;;;;;;;;;;;;;;25.96;34.43;95885.38;10436843;28;2125;-77
2023/07/07 17:40:44;;;;;;;;;;;;;;;25.84;34.82;95878.09;10435938;28;1980;-82
2023/07/07 17:45:47;;;;;;;;;;;;;;;25.80;35.10;95876.44;10440451;28;2101;-80
2023/07/07 17:50:50;;;;;;;;;;;;;;;25.65;35.46;95886.41;10443635;28;1911;-80
2023/07/07 17:55:52;;;;;;;;;;;;;;;25.57;35.25;95882.72;10441953;28;1928;-80
2023/07/07 18:00:55;;;;;;;;;;;;;;;25.44;34.99;95870.31;10436729;28;1957;-81
2023/07/07 18:05:57;;;;;;;;;;;;;;;25.35;34.56;95878.03;10438092;28;1920;-84
2023/07/07 18:11:00;;;;;;;;;;;;;;;25.19;35.46;95886.38;10444817;28;1906;-80
2023/07/07 18:16:03;;;;;;;;;;;;;;;25.12;35.20;95880.75;10439175;28;2184;-80
2023/07/07 18:21:06;;;;;;;;;;;;;;;25.00;35.57;95883.63;10440920;28;2010;-78
2023/07/07 18:26:29;;;;;;;;;;;;;;;24.85;35.81;95879.00;10435544;28;2029;-75
2023/07/07 18:31:31;;;;;;;;;;;;;;;24.74;36.18;95882.34;10436373;28;1982;-76
2023/07/07 18:36:34;;;;;;;;;;;;;;;24.52;36.91;95885.81;10431804;28;2034;-76
2023/07/07 18:41:39;;;;;;;;;;;;;;;24.35;36.96;95886.22;10436689;28;4498;-79
2023/07/07 18:46:42;;;;;;;;;;;;;;;24.21;37.42;95886.69;10436827;28;2258;-77
2023/07/07 18:51:45;;;;;;;;;;;;;;;24.04;37.51;95882.38;10443261;28;1915;-77
2023/07/07 18:56:48;;;;;;;;;;;;;;;23.85;37.50;95888.59;10443635;28;2123;-78
2023/07/07 19:01:51;;;;;;;;;;;;;;;23.69;38.05;95887.81;10441019;28;2003;-79
2023/07/07 19:06:53;;;;;;;;;;;;;;;23.52;39.72;95888.94;10443643;28;1930;-79
2023/07/07 19:11:56;;;;;;;;;;;;;;;23.29;39.84;95886.03;10438879;28;2360;-78
2023/07/07 19:16:58;;;;;;;;;;;;;;;23.17;39.96;95899.81;10441564;28;2031;-79
2023/07/07 19:22:01;;;;;;;;;;;;;;;22.90;41.38;95888.53;10448766;28;1911;-83
2023/07/07 19:27:03;;;;;;;;;;;;;;;22.65;41.64;95897.97;10445959;28;1898;-79
2023/07/07 19:32:06;;;;;;;;;;;;;;;22.43;42.17;95893.78;10450790;28;2286;-81
2023/07/07 19:37:08;;;;;;;;;;;;;;;22.38;42.36;95886.59;10440151;28;2073;-77
2023/07/07 19:42:11;;;;;;;;;;;;;;;22.23;43.20;95900.22;10443175;28;4521;-77
2023/07/07 19:47:14;;;;;;;;;;;;;;;22.08;43.89;95899.78;10439217;28;1958;-78
2023/07/07 19:52:17;;;;;;;;;;;;;;;21.92;44.06;95896.13;10442779;28;1974;-79
2023/07/07 19:57:19;;;;;;;;;;;;;;;21.71;45.51;95906.41;10442001;28;2044;-85
2023/07/07 20:02:24;;;;;;;;;;;;;;;21.45;46.39;95902.06;10441439;28;2433;-86
2023/07/07 20:07:26;;;;;;;;;;;;;;;21.41;47.02;95909.31;10440144;28;1911;-83
2023/07/07 20:12:32;;;;;;;;;;;;;;;21.38;47.92;95910.03;10446168;28;2069;-85
2023/07/07 20:17:34;;;;;;;;;;;;;;;21.21;48.97;95904.72;10437110;28;1903;-84
2023/07/07 20:22:37;;;;;;;;;;;;;;;21.10;50.17;95909.78;10441534;28;2059;-87
2023/07/07 20:27:39;;;;;;;;;;;;;;;20.93;52.63;95910.78;10447440;28;2045;-87
2023/07/07 20:32:47;;;;;;;;;;;;;;;20.79;54.05;95913.00;10444037;28;1965;-80
2023/07/07 20:37:59;;;;;;;;;;;;;;;20.69;57.00;95913.41;10453040;28;2454;-82
2023/07/07 20:43:23;;;;;;;;;;;;;;;20.59;58.80;95922.00;10439638;28;4331;-82
2023/07/07 20:48:53;;;;;;;;;;;;;;;20.50;60.07;95919.34;10424265;28;2014;-82
2023/07/07 20:54:33;;;;;;;;;;;;;;;20.42;62.42;95912.81;10438944;28;1941;-83
2023/07/07 20:59:41;;;;;;;;;;;;;;;20.42;64.45;95907.34;10445918;28;2004;-82
2023/07/07 21:04:45;;;;;;;;;;;;;;;20.29;66.70;95908.38;10439455;28;2056;-80
2023/07/07 21:09:59;;;;;;;;;;;;;;;20.14;68.64;95911.72;10440002;28;1946;-80
2023/07/07 21:15:19;;;;;;;;;;;;;;;20.21;68.72;95910.03;10422489;28;1891;-80
2023/07/07 21:20:31;;;;;;;;;;;;;;;20.05;71.84;95913.72;10419009;28;1907;-79
2023/07/07 21:25:41;;;;;;;;;;;;;;;19.88;74.61;95922.78;10436173;28;2129;-80
2023/07/07 21:30:51;;;;;;;;;;;;;;;19.75;76.60;95932.00;10418299;28;1992;-79
2023/07/07 21:36:01;;;;;;;;;;;;;;;19.57;80.57;95923.84;10434809;28;2286;-78
2023/07/07 21:41:26;;;;;;;;;;;;;;;19.63;79.90;95924.50;10418132;28;4545;-83
2023/07/07 21:46:52;;;;;;;;;;;;;;;19.59;80.74;95921.63;10422530;28;2078;-81
2023/07/07 21:57:19;;;;;;;;;;;;;;;19.30;86.82;95900.56;10419055;28;2213;-79
2023/07/07 22:02:33;;;;;;;;;;;;;;;19.32;86.70;95903.75;10419193;28;2114;-79
2023/07/07 22:13:06;;;;;;;;;;;;;;;19.11;92.02;95898.22;10436233;28;1906;-78
2023/07/07 22:18:15;;;;;;;;;;;;;;;19.07;92.71;95899.16;10428384;28;2002;-78
2023/07/07 22:23:21;;;;;;;;;;;;;;;19.12;91.61;95891.63;10441756;28;1989;-79
2023/07/07 22:28:35;;;;;;;;;;;;;;;19.08;93.19;95903.50;10427399;28;1997;-79
2023/07/07 22:45:02;;;;;;;;;;;;;;;18.87;96.88;95901.47;10447123;28;2022;-84
2023/07/07 22:50:09;;;;;;;;;;;;;;;18.78;98.16;95895.25;10445727;28;2017;-85
2023/07/07 22:55:16;;;;;;;;;;;;;;;18.80;98.02;95882.09;10429293;28;1919;-79
2023/07/07 23:00:22;;;;;;;;;;;;;;;18.78;99.31;95884.34;10445592;28;1954;-80
2023/07/07 23:05:42;;;;;;;;;;;;;;;18.70;100.00;95878.91;10421676;28;2132;-80
2023/07/07 23:16:31;;;;;;;;;;;;;;;18.57;100.00;95867.03;10440873;28;1946;-81
2023/07/07 23:21:41;;;;;;;;;;;;;;;18.54;100.00;95881.28;10428305;28;1918;-82
2023/07/07 23:26:47;;;;;;;;;;;;;;;18.55;100.00;95875.53;10436631;28;2291;-84
2023/07/07 23:31:56;;;;;;;;;;;;;;;18.59;100.00;95881.13;10425022;28;1922;-83
2023/07/07 23:42:33;;;;;;;;;;;;;;;18.47;100.00;95854.56;10426663;28;1919;-84
2023/07/07 23:47:39;;;;;;;;;;;;;;;18.30;100.00;95863.53;10437341;28;2099;-81
2023/07/07 23:52:52;;;;;;;;;;;;;;;18.36;100.00;95866.88;10446549;28;1977;-83
2023/07/07 23:58:00;;;;;;;;;;;;;;;18.21;100.00;95854.56;10424137;28;1871;-81
